sensor_id;sensor_type;location;lat;lon;timestamp;pressure;altitude;pressure_sealevel;temperature
16956;BMP180;8594;52.052;8.354;2022-09-09T00:01:49;99924.00;;;19.50
16956;BMP180;8594;52.052;8.354;2022-09-09T00:04:26;99935.00;;;19.50
16956;BMP180;8594;52.052;8.354;2022-09-09T00:07:04;99930.00;;;19.60
16956;BMP180;8594;52.052;8.354;2022-09-09T00:09:44;99927.00;;;19.80
16956;BMP180;8594;52.052;8.354;2022-09-09T00:12:16;99932.00;;;19.80
16956;BMP180;8594;52.052;8.354;2022-09-09T00:14:51;99923.00;;;19.30
16956;BMP180;8594;52.052;8.354;2022-09-09T00:17:34;99923.00;;;19.60
16956;BMP180;8594;52.052;8.354;2022-09-09T00:20:13;99930.00;;;19.40
16956;BMP180;8594;52.052;8.354;2022-09-09T00:22:50;99926.00;;;19.10
16956;BMP180;8594;52.052;8.354;2022-09-09T00:25:31;99936.00;;;19.60
16956;BMP180;8594;52.052;8.354;2022-09-09T00:28:00;99939.00;;;19.20
16956;BMP180;8594;52.052;8.354;2022-09-09T00:30:32;99936.00;;;19.70
16956;BMP180;8594;52.052;8.354;2022-09-09T00:33:11;99941.00;;;19.50
16956;BMP180;8594;52.052;8.354;2022-09-09T00:35:46;99936.00;;;19.20
16956;BMP180;8594;52.052;8.354;2022-09-09T00:38:18;99937.00;;;19.20
16956;BMP180;8594;52.052;8.354;2022-09-09T00:40:52;99928.00;;;19.60
16956;BMP180;8594;52.052;8.354;2022-09-09T00:43:28;99927.00;;;19.20
16956;BMP180;8594;52.052;8.354;2022-09-09T00:46:33;99934.00;;;19.50
16956;BMP180;8594;52.052;8.354;2022-09-09T00:49:23;99919.00;;;19.60
16956;BMP180;8594;52.052;8.354;2022-09-09T00:52:04;99914.00;;;19.60
16956;BMP180;8594;52.052;8.354;2022-09-09T00:54:46;99916.00;;;19.70
16956;BMP180;8594;52.052;8.354;2022-09-09T00:57:26;99926.00;;;19.50
16956;BMP180;8594;52.052;8.354;2022-09-09T01:00:15;99930.00;;;19.30
16956;BMP180;8594;52.052;8.354;2022-09-09T01:02:57;99927.00;;;19.20
16956;BMP180;8594;52.052;8.354;2022-09-09T01:05:36;99919.00;;;19.30
16956;BMP180;8594;52.052;8.354;2022-09-09T01:08:33;99916.00;;;19.80
16956;BMP180;8594;52.052;8.354;2022-09-09T01:11:05;99916.00;;;19.70
16956;BMP180;8594;52.052;8.354;2022-09-09T01:13:36;99914.00;;;19.60
16956;BMP180;8594;52.052;8.354;2022-09-09T01:16:07;99916.00;;;19.70
16956;BMP180;8594;52.052;8.354;2022-09-09T01:18:39;99911.00;;;19.50
16956;BMP180;8594;52.052;8.354;2022-09-09T01:21:22;99907.00;;;19.30
16956;BMP180;8594;52.052;8.354;2022-09-09T01:24:15;99916.00;;;19.20
16956;BMP180;8594;52.052;8.354;2022-09-09T01:26:50;99915.00;;;19.30
16956;BMP180;8594;52.052;8.354;2022-09-09T01:29:21;99909.00;;;19.60
16956;BMP180;8594;52.052;8.354;2022-09-09T01:31:55;99921.00;;;19.20
16956;BMP180;8594;52.052;8.354;2022-09-09T01:34:25;99911.00;;;19.60
16956;BMP180;8594;52.052;8.354;2022-09-09T01:36:59;99910.00;;;19.70
16956;BMP180;8594;52.052;8.354;2022-09-09T01:39:28;99916.00;;;19.40
16956;BMP180;8594;52.052;8.354;2022-09-09T01:41:57;99920.00;;;19.20
16956;BMP180;8594;52.052;8.354;2022-09-09T01:44:25;99920.00;;;19.30
16956;BMP180;8594;52.052;8.354;2022-09-09T01:46:53;99920.00;;;19.40
16956;BMP180;8594;52.052;8.354;2022-09-09T01:49:21;99922.00;;;19.20
16956;BMP180;8594;52.052;8.354;2022-09-09T01:51:52;99923.00;;;19.20
16956;BMP180;8594;52.052;8.354;2022-09-09T01:54:21;99926.00;;;19.30
16956;BMP180;8594;52.052;8.354;2022-09-09T01:57:06;99923.00;;;19.40
16956;BMP180;8594;52.052;8.354;2022-09-09T01:59:57;99920.00;;;19.40
16956;BMP180;8594;52.052;8.354;2022-09-09T02:02:33;99925.00;;;19.20
16956;BMP180;8594;52.052;8.354;2022-09-09T02:05:15;99919.00;;;19.80
16956;BMP180;8594;52.052;8.354;2022-09-09T02:07:48;99928.00;;;19.60
16956;BMP180;8594;52.052;8.354;2022-09-09T02:10:20;99918.00;;;19.60
16956;BMP180;8594;52.052;8.354;2022-09-09T02:12:57;99920.00;;;19.50
16956;BMP180;8594;52.052;8.354;2022-09-09T02:15:34;99919.00;;;19.40
16956;BMP180;8594;52.052;8.354;2022-09-09T02:18:08;99924.00;;;19.20
16956;BMP180;8594;52.052;8.354;2022-09-09T02:20:38;99921.00;;;19.40
16956;BMP180;8594;52.052;8.354;2022-09-09T02:23:07;99919.00;;;19.40
16956;BMP180;8594;52.052;8.354;2022-09-09T02:25:37;99919.00;;;19.20
16956;BMP180;8594;52.052;8.354;2022-09-09T02:28:09;99928.00;;;19.60
16956;BMP180;8594;52.052;8.354;2022-09-09T02:30:41;99921.00;;;19.80
16956;BMP180;8594;52.052;8.354;2022-09-09T02:33:11;99921.00;;;19.40
16956;BMP180;8594;52.052;8.354;2022-09-09T02:35:41;99924.00;;;19.50
16956;BMP180;8594;52.052;8.354;2022-09-09T02:38:13;99920.00;;;19.50
16956;BMP180;8594;52.052;8.354;2022-09-09T02:40:41;99931.00;;;19.20
16956;BMP180;8594;52.052;8.354;2022-09-09T02:43:10;99921.00;;;19.30
16956;BMP180;8594;52.052;8.354;2022-09-09T02:45:43;99923.00;;;19.50
16956;BMP180;8594;52.052;8.354;2022-09-09T02:48:20;99915.00;;;19.70
16956;BMP180;8594;52.052;8.354;2022-09-09T02:50:59;99920.00;;;19.70
16956;BMP180;8594;52.052;8.354;2022-09-09T02:53:39;99908.00;;;20.00
16956;BMP180;8594;52.052;8.354;2022-09-09T02:56:16;99919.00;;;20.10
16956;BMP180;8594;52.052;8.354;2022-09-09T02:58:45;99927.00;;;20.30
16956;BMP180;8594;52.052;8.354;2022-09-09T03:01:13;99916.00;;;20.40
16956;BMP180;8594;52.052;8.354;2022-09-09T03:03:40;99919.00;;;20.40
16956;BMP180;8594;52.052;8.354;2022-09-09T03:06:08;99918.00;;;20.40
16956;BMP180;8594;52.052;8.354;2022-09-09T03:08:35;99922.00;;;19.80
16956;BMP180;8594;52.052;8.354;2022-09-09T03:11:02;99931.00;;;19.40
16956;BMP180;8594;52.052;8.354;2022-09-09T03:13:29;99924.00;;;19.60
16956;BMP180;8594;52.052;8.354;2022-09-09T03:15:58;99924.00;;;19.90
16956;BMP180;8594;52.052;8.354;2022-09-09T03:18:25;99926.00;;;19.60
16956;BMP180;8594;52.052;8.354;2022-09-09T03:20:53;99926.00;;;19.20
16956;BMP180;8594;52.052;8.354;2022-09-09T03:23:20;99932.00;;;19.60
16956;BMP180;8594;52.052;8.354;2022-09-09T03:25:48;99928.00;;;19.70
16956;BMP180;8594;52.052;8.354;2022-09-09T03:28:17;99923.00;;;19.90
16956;BMP180;8594;52.052;8.354;2022-09-09T03:30:44;99927.00;;;19.80
16956;BMP180;8594;52.052;8.354;2022-09-09T03:33:12;99919.00;;;19.60
16956;BMP180;8594;52.052;8.354;2022-09-09T03:35:45;99924.00;;;19.60
16956;BMP180;8594;52.052;8.354;2022-09-09T03:38:14;99920.00;;;19.40
16956;BMP180;8594;52.052;8.354;2022-09-09T03:40:49;99924.00;;;19.40
16956;BMP180;8594;52.052;8.354;2022-09-09T03:43:16;99916.00;;;19.20
16956;BMP180;8594;52.052;8.354;2022-09-09T03:45:45;99915.00;;;19.20
16956;BMP180;8594;52.052;8.354;2022-09-09T03:48:15;99923.00;;;19.30
16956;BMP180;8594;52.052;8.354;2022-09-09T03:50:45;99915.00;;;19.20
16956;BMP180;8594;52.052;8.354;2022-09-09T03:53:12;99919.00;;;19.40
16956;BMP180;8594;52.052;8.354;2022-09-09T03:55:39;99916.00;;;19.10
16956;BMP180;8594;52.052;8.354;2022-09-09T03:58:07;99922.00;;;19.40
16956;BMP180;8594;52.052;8.354;2022-09-09T04:00:34;99917.00;;;19.00
16956;BMP180;8594;52.052;8.354;2022-09-09T04:03:01;99920.00;;;19.20
16956;BMP180;8594;52.052;8.354;2022-09-09T04:05:29;99913.00;;;19.70
16956;BMP180;8594;52.052;8.354;2022-09-09T04:07:56;99919.00;;;19.80
16956;BMP180;8594;52.052;8.354;2022-09-09T04:10:22;99912.00;;;19.60
16956;BMP180;8594;52.052;8.354;2022-09-09T04:12:49;99918.00;;;19.80
16956;BMP180;8594;52.052;8.354;2022-09-09T04:15:16;99915.00;;;19.40
16956;BMP180;8594;52.052;8.354;2022-09-09T04:17:44;99924.00;;;19.40
16956;BMP180;8594;52.052;8.354;2022-09-09T04:20:11;99926.00;;;19.40
16956;BMP180;8594;52.052;8.354;2022-09-09T04:22:39;99918.00;;;19.40
16956;BMP180;8594;52.052;8.354;2022-09-09T04:25:07;99927.00;;;19.70
16956;BMP180;8594;52.052;8.354;2022-09-09T04:27:33;99932.00;;;19.90
16956;BMP180;8594;52.052;8.354;2022-09-09T04:30:00;99930.00;;;19.80
16956;BMP180;8594;52.052;8.354;2022-09-09T04:32:27;99921.00;;;19.80
16956;BMP180;8594;52.052;8.354;2022-09-09T04:34:54;99930.00;;;20.10
16956;BMP180;8594;52.052;8.354;2022-09-09T04:37:20;99928.00;;;20.00
16956;BMP180;8594;52.052;8.354;2022-09-09T04:39:50;99926.00;;;19.90
16956;BMP180;8594;52.052;8.354;2022-09-09T04:42:17;99925.00;;;20.10
16956;BMP180;8594;52.052;8.354;2022-09-09T04:44:45;99930.00;;;20.10
16956;BMP180;8594;52.052;8.354;2022-09-09T04:47:12;99930.00;;;20.10
16956;BMP180;8594;52.052;8.354;2022-09-09T04:49:40;99941.00;;;19.70
16956;BMP180;8594;52.052;8.354;2022-09-09T04:52:06;99938.00;;;19.60
16956;BMP180;8594;52.052;8.354;2022-09-09T04:54:33;99943.00;;;19.40
16956;BMP180;8594;52.052;8.354;2022-09-09T04:57:01;99941.00;;;19.70
16956;BMP180;8594;52.052;8.354;2022-09-09T04:59:28;99936.00;;;20.10
16956;BMP180;8594;52.052;8.354;2022-09-09T05:01:55;99934.00;;;20.00
16956;BMP180;8594;52.052;8.354;2022-09-09T05:04:22;99933.00;;;19.90
16956;BMP180;8594;52.052;8.354;2022-09-09T05:06:49;99941.00;;;20.10
16956;BMP180;8594;52.052;8.354;2022-09-09T05:09:16;99935.00;;;19.90
16956;BMP180;8594;52.052;8.354;2022-09-09T05:11:42;99939.00;;;19.30
16956;BMP180;8594;52.052;8.354;2022-09-09T05:14:11;99947.00;;;19.70
16956;BMP180;8594;52.052;8.354;2022-09-09T05:16:38;99940.00;;;19.90
16956;BMP180;8594;52.052;8.354;2022-09-09T05:19:04;99938.00;;;19.90
16956;BMP180;8594;52.052;8.354;2022-09-09T05:21:34;99936.00;;;20.10
16956;BMP180;8594;52.052;8.354;2022-09-09T05:24:01;99935.00;;;20.00
16956;BMP180;8594;52.052;8.354;2022-09-09T05:26:28;99937.00;;;19.80
16956;BMP180;8594;52.052;8.354;2022-09-09T05:28:57;99935.00;;;19.80
16956;BMP180;8594;52.052;8.354;2022-09-09T05:31:26;99938.00;;;19.80
16956;BMP180;8594;52.052;8.354;2022-09-09T05:33:53;99939.00;;;19.80
16956;BMP180;8594;52.052;8.354;2022-09-09T05:36:22;99932.00;;;19.70
16956;BMP180;8594;52.052;8.354;2022-09-09T05:38:49;99938.00;;;20.10
16956;BMP180;8594;52.052;8.354;2022-09-09T05:41:17;99938.00;;;20.00
16956;BMP180;8594;52.052;8.354;2022-09-09T05:43:46;99939.00;;;20.10
16956;BMP180;8594;52.052;8.354;2022-09-09T05:46:16;99946.00;;;20.20
16956;BMP180;8594;52.052;8.354;2022-09-09T05:48:46;99949.00;;;19.70
16956;BMP180;8594;52.052;8.354;2022-09-09T05:51:17;99947.00;;;20.10
16956;BMP180;8594;52.052;8.354;2022-09-09T05:53:45;99949.00;;;20.10
16956;BMP180;8594;52.052;8.354;2022-09-09T05:56:14;99943.00;;;20.40
16956;BMP180;8594;52.052;8.354;2022-09-09T05:58:41;99945.00;;;20.10
16956;BMP180;8594;52.052;8.354;2022-09-09T06:01:12;99946.00;;;20.10
16956;BMP180;8594;52.052;8.354;2022-09-09T06:03:41;99947.00;;;20.20
16956;BMP180;8594;52.052;8.354;2022-09-09T06:06:12;99948.00;;;20.20
16956;BMP180;8594;52.052;8.354;2022-09-09T06:08:41;99950.00;;;20.10
16956;BMP180;8594;52.052;8.354;2022-09-09T06:11:13;99948.00;;;20.20
16956;BMP180;8594;52.052;8.354;2022-09-09T06:13:41;99944.00;;;20.00
16956;BMP180;8594;52.052;8.354;2022-09-09T06:16:09;99949.00;;;20.10
16956;BMP180;8594;52.052;8.354;2022-09-09T06:18:37;99947.00;;;20.20
16956;BMP180;8594;52.052;8.354;2022-09-09T06:21:14;99939.00;;;20.30
16956;BMP180;8594;52.052;8.354;2022-09-09T06:23:43;99948.00;;;20.30
16956;BMP180;8594;52.052;8.354;2022-09-09T06:26:13;99945.00;;;20.40
16956;BMP180;8594;52.052;8.354;2022-09-09T06:28:41;99947.00;;;20.40
16956;BMP180;8594;52.052;8.354;2022-09-09T06:31:10;99954.00;;;20.30
16956;BMP180;8594;52.052;8.354;2022-09-09T06:33:39;99942.00;;;20.00
16956;BMP180;8594;52.052;8.354;2022-09-09T06:36:11;99936.00;;;20.40
16956;BMP180;8594;52.052;8.354;2022-09-09T06:38:38;99941.00;;;20.60
16956;BMP180;8594;52.052;8.354;2022-09-09T06:41:08;99934.00;;;21.10
16956;BMP180;8594;52.052;8.354;2022-09-09T06:43:35;99943.00;;;21.20
16956;BMP180;8594;52.052;8.354;2022-09-09T06:46:06;99936.00;;;21.50
16956;BMP180;8594;52.052;8.354;2022-09-09T06:48:36;99935.00;;;21.40
16956;BMP180;8594;52.052;8.354;2022-09-09T06:51:05;99943.00;;;21.20
16956;BMP180;8594;52.052;8.354;2022-09-09T06:53:34;99946.00;;;21.20
16956;BMP180;8594;52.052;8.354;2022-09-09T06:56:01;99948.00;;;20.70
16956;BMP180;8594;52.052;8.354;2022-09-09T06:58:30;99949.00;;;20.90
16956;BMP180;8594;52.052;8.354;2022-09-09T07:01:05;99946.00;;;20.90
16956;BMP180;8594;52.052;8.354;2022-09-09T07:03:32;99954.00;;;20.80
16956;BMP180;8594;52.052;8.354;2022-09-09T07:06:00;99954.00;;;20.80
16956;BMP180;8594;52.052;8.354;2022-09-09T07:08:29;99945.00;;;21.20
16956;BMP180;8594;52.052;8.354;2022-09-09T07:11:02;99956.00;;;21.40
16956;BMP180;8594;52.052;8.354;2022-09-09T07:13:33;99959.00;;;21.60
16956;BMP180;8594;52.052;8.354;2022-09-09T07:16:04;99958.00;;;21.60
16956;BMP180;8594;52.052;8.354;2022-09-09T07:18:31;99951.00;;;21.80
16956;BMP180;8594;52.052;8.354;2022-09-09T07:20:59;99953.00;;;21.90
16956;BMP180;8594;52.052;8.354;2022-09-09T07:23:26;99955.00;;;21.90
16956;BMP180;8594;52.052;8.354;2022-09-09T07:25:52;99959.00;;;22.10
16956;BMP180;8594;52.052;8.354;2022-09-09T07:28:20;99953.00;;;22.10
16956;BMP180;8594;52.052;8.354;2022-09-09T07:30:55;99969.00;;;21.90
16956;BMP180;8594;52.052;8.354;2022-09-09T07:33:25;99964.00;;;21.90
16956;BMP180;8594;52.052;8.354;2022-09-09T07:35:52;99960.00;;;21.90
16956;BMP180;8594;52.052;8.354;2022-09-09T07:38:20;99963.00;;;22.20
16956;BMP180;8594;52.052;8.354;2022-09-09T07:40:48;99956.00;;;21.90
16956;BMP180;8594;52.052;8.354;2022-09-09T07:43:15;99964.00;;;22.20
16956;BMP180;8594;52.052;8.354;2022-09-09T07:45:42;99961.00;;;22.10
16956;BMP180;8594;52.052;8.354;2022-09-09T07:48:11;99961.00;;;22.20
16956;BMP180;8594;52.052;8.354;2022-09-09T07:50:37;99968.00;;;22.20
16956;BMP180;8594;52.052;8.354;2022-09-09T07:53:05;99957.00;;;22.40
16956;BMP180;8594;52.052;8.354;2022-09-09T07:55:31;99949.00;;;22.50
16956;BMP180;8594;52.052;8.354;2022-09-09T07:57:58;99957.00;;;22.20
16956;BMP180;8594;52.052;8.354;2022-09-09T08:00:25;99945.00;;;22.90
16956;BMP180;8594;52.052;8.354;2022-09-09T08:02:54;99946.00;;;23.60
16956;BMP180;8594;52.052;8.354;2022-09-09T08:05:22;99959.00;;;23.70
16956;BMP180;8594;52.052;8.354;2022-09-09T08:07:49;99961.00;;;23.70
16956;BMP180;8594;52.052;8.354;2022-09-09T08:10:16;99950.00;;;23.50
16956;BMP180;8594;52.052;8.354;2022-09-09T08:12:44;99951.00;;;23.90
16956;BMP180;8594;52.052;8.354;2022-09-09T08:15:11;99956.00;;;23.60
16956;BMP180;8594;52.052;8.354;2022-09-09T08:17:38;99955.00;;;24.10
16956;BMP180;8594;52.052;8.354;2022-09-09T08:20:06;99961.00;;;24.40
16956;BMP180;8594;52.052;8.354;2022-09-09T08:22:34;99959.00;;;24.10
16956;BMP180;8594;52.052;8.354;2022-09-09T08:25:04;99968.00;;;23.50
16956;BMP180;8594;52.052;8.354;2022-09-09T08:27:32;99964.00;;;23.50
16956;BMP180;8594;52.052;8.354;2022-09-09T08:29:58;99966.00;;;23.40
16956;BMP180;8594;52.052;8.354;2022-09-09T08:32:25;99973.00;;;23.30
16956;BMP180;8594;52.052;8.354;2022-09-09T08:34:52;99976.00;;;23.30
16956;BMP180;8594;52.052;8.354;2022-09-09T08:37:19;99976.00;;;24.00
16956;BMP180;8594;52.052;8.354;2022-09-09T08:39:48;99975.00;;;23.30
16956;BMP180;8594;52.052;8.354;2022-09-09T08:42:36;99977.00;;;23.20
16956;BMP180;8594;52.052;8.354;2022-09-09T08:45:30;99980.00;;;23.40
16956;BMP180;8594;52.052;8.354;2022-09-09T08:48:14;99982.00;;;23.40
16956;BMP180;8594;52.052;8.354;2022-09-09T08:50:44;99976.00;;;23.30
16956;BMP180;8594;52.052;8.354;2022-09-09T08:53:19;99985.00;;;22.90
16956;BMP180;8594;52.052;8.354;2022-09-09T08:55:51;99988.00;;;23.00
16956;BMP180;8594;52.052;8.354;2022-09-09T08:58:24;99980.00;;;23.20
16956;BMP180;8594;52.052;8.354;2022-09-09T09:01:16;99995.00;;;23.50
16956;BMP180;8594;52.052;8.354;2022-09-09T09:03:58;99991.00;;;23.30
16956;BMP180;8594;52.052;8.354;2022-09-09T09:06:39;99988.00;;;24.00
16956;BMP180;8594;52.052;8.354;2022-09-09T09:09:20;99988.00;;;23.40
16956;BMP180;8594;52.052;8.354;2022-09-09T09:11:51;99990.00;;;23.70
16956;BMP180;8594;52.052;8.354;2022-09-09T09:14:23;99995.00;;;23.00
16956;BMP180;8594;52.052;8.354;2022-09-09T09:16:54;99986.00;;;22.70
16956;BMP180;8594;52.052;8.354;2022-09-09T09:19:23;99987.00;;;22.70
16956;BMP180;8594;52.052;8.354;2022-09-09T09:21:58;99994.00;;;23.10
16956;BMP180;8594;52.052;8.354;2022-09-09T09:24:42;99997.00;;;22.80
16956;BMP180;8594;52.052;8.354;2022-09-09T09:27:16;99989.00;;;23.80
16956;BMP180;8594;52.052;8.354;2022-09-09T09:29:47;99975.00;;;24.10
16956;BMP180;8594;52.052;8.354;2022-09-09T09:32:19;99981.00;;;24.40
16956;BMP180;8594;52.052;8.354;2022-09-09T09:34:49;99970.00;;;24.30
16956;BMP180;8594;52.052;8.354;2022-09-09T09:37:26;99972.00;;;24.30
16956;BMP180;8594;52.052;8.354;2022-09-09T09:39:54;99976.00;;;25.10
16956;BMP180;8594;52.052;8.354;2022-09-09T09:42:23;99971.00;;;25.00
16956;BMP180;8594;52.052;8.354;2022-09-09T09:44:50;99975.00;;;25.70
16956;BMP180;8594;52.052;8.354;2022-09-09T09:47:20;99967.00;;;25.30
16956;BMP180;8594;52.052;8.354;2022-09-09T09:49:55;99965.00;;;24.70
16956;BMP180;8594;52.052;8.354;2022-09-09T09:52:24;99971.00;;;24.90
16956;BMP180;8594;52.052;8.354;2022-09-09T09:54:53;99981.00;;;25.10
16956;BMP180;8594;52.052;8.354;2022-09-09T09:57:27;99978.00;;;24.80
16956;BMP180;8594;52.052;8.354;2022-09-09T10:00:15;99980.00;;;25.20
16956;BMP180;8594;52.052;8.354;2022-09-09T10:02:50;99990.00;;;24.10
16956;BMP180;8594;52.052;8.354;2022-09-09T10:05:27;99980.00;;;25.20
16956;BMP180;8594;52.052;8.354;2022-09-09T10:08:03;99978.00;;;25.20
16956;BMP180;8594;52.052;8.354;2022-09-09T10:10:52;99978.00;;;24.50
16956;BMP180;8594;52.052;8.354;2022-09-09T10:13:29;99978.00;;;25.30
16956;BMP180;8594;52.052;8.354;2022-09-09T10:16:20;99988.00;;;25.50
16956;BMP180;8594;52.052;8.354;2022-09-09T10:18:59;99985.00;;;25.40
16956;BMP180;8594;52.052;8.354;2022-09-09T10:22:01;99982.00;;;25.10
16956;BMP180;8594;52.052;8.354;2022-09-09T10:24:49;99984.00;;;25.60
16956;BMP180;8594;52.052;8.354;2022-09-09T10:27:32;99994.00;;;25.50
16956;BMP180;8594;52.052;8.354;2022-09-09T10:30:12;99994.00;;;25.50
16956;BMP180;8594;52.052;8.354;2022-09-09T10:32:48;99984.00;;;25.10
16956;BMP180;8594;52.052;8.354;2022-09-09T10:35:29;99973.00;;;25.70
16956;BMP180;8594;52.052;8.354;2022-09-09T10:38:13;99974.00;;;26.10
16956;BMP180;8594;52.052;8.354;2022-09-09T10:41:08;99976.00;;;26.30
16956;BMP180;8594;52.052;8.354;2022-09-09T10:44:12;99966.00;;;26.00
16956;BMP180;8594;52.052;8.354;2022-09-09T10:47:11;99968.00;;;26.80
16956;BMP180;8594;52.052;8.354;2022-09-09T10:50:14;99970.00;;;25.20
16956;BMP180;8594;52.052;8.354;2022-09-09T10:52:54;99975.00;;;25.40
16956;BMP180;8594;52.052;8.354;2022-09-09T10:55:31;99963.00;;;26.00
16956;BMP180;8594;52.052;8.354;2022-09-09T10:58:04;99963.00;;;26.30
16956;BMP180;8594;52.052;8.354;2022-09-09T11:00:42;99960.00;;;26.00
16956;BMP180;8594;52.052;8.354;2022-09-09T11:03:20;99966.00;;;26.30
16956;BMP180;8594;52.052;8.354;2022-09-09T11:05:53;99960.00;;;27.00
16956;BMP180;8594;52.052;8.354;2022-09-09T11:08:26;99959.00;;;27.00
16956;BMP180;8594;52.052;8.354;2022-09-09T11:11:02;99963.00;;;26.40
16956;BMP180;8594;52.052;8.354;2022-09-09T11:13:39;99960.00;;;26.40
16956;BMP180;8594;52.052;8.354;2022-09-09T11:16:22;99972.00;;;26.10
16956;BMP180;8594;52.052;8.354;2022-09-09T11:19:00;99967.00;;;26.40
16956;BMP180;8594;52.052;8.354;2022-09-09T11:21:31;99949.00;;;26.60
16956;BMP180;8594;52.052;8.354;2022-09-09T11:24:06;99972.00;;;26.90
16956;BMP180;8594;52.052;8.354;2022-09-09T11:26:39;99961.00;;;26.10
16956;BMP180;8594;52.052;8.354;2022-09-09T11:29:59;99962.00;;;25.90
16956;BMP180;8594;52.052;8.354;2022-09-09T11:33:16;99966.00;;;26.20
16956;BMP180;8594;52.052;8.354;2022-09-09T11:36:06;99957.00;;;25.90
16956;BMP180;8594;52.052;8.354;2022-09-09T11:38:45;99959.00;;;26.10
16956;BMP180;8594;52.052;8.354;2022-09-09T11:41:14;99958.00;;;26.90
16956;BMP180;8594;52.052;8.354;2022-09-09T11:43:44;99960.00;;;27.40
16956;BMP180;8594;52.052;8.354;2022-09-09T11:46:14;99961.00;;;27.10
16956;BMP180;8594;52.052;8.354;2022-09-09T11:48:44;99971.00;;;26.90
16956;BMP180;8594;52.052;8.354;2022-09-09T11:51:27;99968.00;;;26.20
16956;BMP180;8594;52.052;8.354;2022-09-09T11:53:58;99966.00;;;26.00
16956;BMP180;8594;52.052;8.354;2022-09-09T11:56:30;99964.00;;;25.90
16956;BMP180;8594;52.052;8.354;2022-09-09T11:59:01;99969.00;;;26.10
16956;BMP180;8594;52.052;8.354;2022-09-09T12:01:34;99962.00;;;26.00
16956;BMP180;8594;52.052;8.354;2022-09-09T12:04:17;99963.00;;;26.20
16956;BMP180;8594;52.052;8.354;2022-09-09T12:06:50;99954.00;;;25.80
16956;BMP180;8594;52.052;8.354;2022-09-09T12:09:27;99956.00;;;25.90
16956;BMP180;8594;52.052;8.354;2022-09-09T12:15:16;99957.00;;;25.90
16956;BMP180;8594;52.052;8.354;2022-09-09T12:17:49;99963.00;;;26.10
16956;BMP180;8594;52.052;8.354;2022-09-09T12:20:20;99956.00;;;25.90
16956;BMP180;8594;52.052;8.354;2022-09-09T12:23:19;99956.00;;;25.30
16956;BMP180;8594;52.052;8.354;2022-09-09T12:29:08;99949.00;;;26.00
16956;BMP180;8594;52.052;8.354;2022-09-09T12:31:44;99959.00;;;25.80
16956;BMP180;8594;52.052;8.354;2022-09-09T12:34:18;99951.00;;;25.90
16956;BMP180;8594;52.052;8.354;2022-09-09T12:36:54;99944.00;;;25.60
16956;BMP180;8594;52.052;8.354;2022-09-09T12:39:31;99953.00;;;26.40
16956;BMP180;8594;52.052;8.354;2022-09-09T12:41:59;99950.00;;;27.10
16956;BMP180;8594;52.052;8.354;2022-09-09T12:44:27;99939.00;;;26.60
16956;BMP180;8594;52.052;8.354;2022-09-09T12:46:56;99938.00;;;27.10
16956;BMP180;8594;52.052;8.354;2022-09-09T12:49:30;99948.00;;;27.60
16956;BMP180;8594;52.052;8.354;2022-09-09T12:52:03;99948.00;;;27.30
16956;BMP180;8594;52.052;8.354;2022-09-09T12:54:34;99948.00;;;26.80
16956;BMP180;8594;52.052;8.354;2022-09-09T12:57:02;99940.00;;;26.00
16956;BMP180;8594;52.052;8.354;2022-09-09T12:59:37;99939.00;;;26.20
16956;BMP180;8594;52.052;8.354;2022-09-09T13:02:18;99932.00;;;26.00
16956;BMP180;8594;52.052;8.354;2022-09-09T13:04:46;99936.00;;;26.70
16956;BMP180;8594;52.052;8.354;2022-09-09T13:07:13;99932.00;;;26.70
16956;BMP180;8594;52.052;8.354;2022-09-09T13:09:44;99937.00;;;26.70
16956;BMP180;8594;52.052;8.354;2022-09-09T13:12:16;99921.00;;;27.00
16956;BMP180;8594;52.052;8.354;2022-09-09T13:14:47;99929.00;;;27.00
16956;BMP180;8594;52.052;8.354;2022-09-09T13:17:21;99928.00;;;26.90
16956;BMP180;8594;52.052;8.354;2022-09-09T13:19:50;99932.00;;;27.00
16956;BMP180;8594;52.052;8.354;2022-09-09T13:22:23;99931.00;;;27.50
16956;BMP180;8594;52.052;8.354;2022-09-09T13:25:02;99924.00;;;26.40
16956;BMP180;8594;52.052;8.354;2022-09-09T13:27:32;99924.00;;;26.50
16956;BMP180;8594;52.052;8.354;2022-09-09T13:30:00;99913.00;;;26.60
16956;BMP180;8594;52.052;8.354;2022-09-09T13:32:28;99916.00;;;27.60
16956;BMP180;8594;52.052;8.354;2022-09-09T13:34:59;99937.00;;;26.70
16956;BMP180;8594;52.052;8.354;2022-09-09T13:37:33;99927.00;;;26.80
16956;BMP180;8594;52.052;8.354;2022-09-09T13:40:04;99924.00;;;26.80
16956;BMP180;8594;52.052;8.354;2022-09-09T13:42:36;99928.00;;;27.20
16956;BMP180;8594;52.052;8.354;2022-09-09T13:45:18;99914.00;;;26.30
16956;BMP180;8594;52.052;8.354;2022-09-09T13:47:47;99915.00;;;26.60
16956;BMP180;8594;52.052;8.354;2022-09-09T13:50:23;99920.00;;;26.30
16956;BMP180;8594;52.052;8.354;2022-09-09T13:52:52;99915.00;;;26.60
16956;BMP180;8594;52.052;8.354;2022-09-09T13:55:23;99921.00;;;26.60
16956;BMP180;8594;52.052;8.354;2022-09-09T13:57:52;99916.00;;;26.20
16956;BMP180;8594;52.052;8.354;2022-09-09T14:00:19;99915.00;;;26.90
16956;BMP180;8594;52.052;8.354;2022-09-09T14:02:46;99917.00;;;26.80
16956;BMP180;8594;52.052;8.354;2022-09-09T14:05:14;99921.00;;;26.40
16956;BMP180;8594;52.052;8.354;2022-09-09T14:07:42;99919.00;;;26.60
16956;BMP180;8594;52.052;8.354;2022-09-09T14:10:11;99923.00;;;26.10
16956;BMP180;8594;52.052;8.354;2022-09-09T14:12:39;99910.00;;;26.30
16956;BMP180;8594;52.052;8.354;2022-09-09T14:15:10;99925.00;;;26.30
16956;BMP180;8594;52.052;8.354;2022-09-09T14:17:38;99919.00;;;25.90
16956;BMP180;8594;52.052;8.354;2022-09-09T14:20:07;99920.00;;;25.70
16956;BMP180;8594;52.052;8.354;2022-09-09T14:22:35;99934.00;;;25.90
16956;BMP180;8594;52.052;8.354;2022-09-09T14:25:03;99929.00;;;25.80
16956;BMP180;8594;52.052;8.354;2022-09-09T14:27:30;99939.00;;;25.60
16956;BMP180;8594;52.052;8.354;2022-09-09T14:29:59;99939.00;;;25.10
16956;BMP180;8594;52.052;8.354;2022-09-09T14:32:27;99938.00;;;25.00
16956;BMP180;8594;52.052;8.354;2022-09-09T14:34:54;99944.00;;;25.10
16956;BMP180;8594;52.052;8.354;2022-09-09T14:37:21;99942.00;;;25.00
16956;BMP180;8594;52.052;8.354;2022-09-09T14:39:47;99938.00;;;24.80
16956;BMP180;8594;52.052;8.354;2022-09-09T14:42:16;99941.00;;;25.30
16956;BMP180;8594;52.052;8.354;2022-09-09T14:44:43;99936.00;;;25.10
16956;BMP180;8594;52.052;8.354;2022-09-09T14:47:11;99933.00;;;25.40
16956;BMP180;8594;52.052;8.354;2022-09-09T14:49:38;99932.00;;;25.40
16956;BMP180;8594;52.052;8.354;2022-09-09T14:52:05;99934.00;;;25.70
16956;BMP180;8594;52.052;8.354;2022-09-09T14:54:32;99926.00;;;25.70
16956;BMP180;8594;52.052;8.354;2022-09-09T14:56:59;99931.00;;;25.70
16956;BMP180;8594;52.052;8.354;2022-09-09T14:59:26;99928.00;;;25.50